Date,TemperatureHighF,TemperatureAvgF,TemperatureLowF,DewpointHighF,DewpointAvgF,DewpointLowF,HumidityHigh,HumidityAvg,HumidityLow,PressureMaxIn,PressureMinIn,WindSpeedMaxMPH,WindSpeedAvgMPH,GustSpeedMaxMPH,PrecipitationSumIn
2013-1-4,35.4,25.8,20.3,19.9,12.3,6.0,65,56,44,30.00,29.92,21,5,21,0.00
2013-1-5,41.9,28.6,18.9,23.2,17.8,10.4,75,64,43,29.93,29.64,11,2,11,0.00
2013-1-6,32.5,25.8,19.0,26.8,17.7,10.4,86,71,62,29.98,29.65,22,5,22,0.00
2013-1-7,45.0,31.9,19.9,23.9,16.0,6.6,70,52,41,29.90,29.50,19,6,19,0.00
2013-1-8,42.8,33.0,21.2,26.9,20.1,14.6,76,59,43,29.84,29.50,14,3,14,0.00
2013-1-9,37.9,34.3,27.9,28.0,23.2,15.4,74,63,58,30.19,29.51,30,8,30,0.05
2013-1-10,50.5,35.7,20.1,29.6,13.2,6.6,73,43,21,30.18,29.64,17,4,17,0.00
2013-1-11,42.6,38.7,34.7,39.1,35.1,28.4,93,87,70,29.64,29.25,14,2,14,0.21
2013-1-12,45.1,32.7,18.7,41.5,23.3,6.4,89,68,53,29.77,29.13,18,6,18,0.01
2013-1-13,21.0,16.1,11.7,9.4,6.9,4.8,73,66,55,29.85,29.74,14,4,14,0.00
2013-1-14,17.6,12.8,9.7,10.6,2.5,-1.9,74,63,52,30.11,29.84,13,3,13,0.00
2013-1-15,28.8,19.4,9.3,10.7,1.3,-6.3,59,46,23,30.10,29.60,16,4,16,0.00
2013-1-16,31.5,24.8,11.7,24.4,11.7,-3.7,77,57,41,30.34,29.31,24,7,24,0.01
2013-1-17,13.5,10.5,7.9,2.1,-2.5,-8.4,67,55,44,30.53,30.34,21,8,21,0.00
2013-1-18,16.7,12.4,7.2,9.6,2.8,-6.7,73,65,52,30.51,29.99,11,3,12,0.00
2013-1-19,33.1,19.6,9.0,26.9,12.7,0.6,88,74,61,30.11,29.72,21,4,21,0.01
2013-1-20,14.4,7.4,2.1,5.0,-2.1,-6.5,74,64,50,30.43,30.11,20,7,20,0.00
2013-1-21,6.4,-0.7,-4.2,-2.1,-10.6,-15.2,67,61,57,30.37,30.24,13,5,13,0.00
2013-1-22,3.9,-0.9,-2.9,-5.4,-11.6,-14.3,65,59,54,30.47,30.35,8,2,8,0.00
2013-1-23,12.7,2.9,-3.8,4.9,-7.8,-16.3,71,60,53,30.64,30.23,16,3,16,0.00
2013-1-25,28.6,16.6,8.1,13.3,6.3,-1.3,76,64,39,29.92,29.57,11,2,11,0.00
2013-1-26,32.0,20.0,19.4,13.4,13.0,9.9,77,74,44,29.93,29.77,8,5,8,0.00
2013-1-27,34.9,25.1,8.6,27.0,15.2,-0.3,85,66,53,29.95,29.62,8,2,8,0.00
2013-1-28,42.6,32.3,28.2,34.8,27.3,23.7,88,82,67,29.62,29.52,5,1,5,0.01
2013-1-29,33.6,32.1,28.2,29.8,28.2,23.7,87,86,83,29.54,29.22,8,2,8,0.00
2013-1-30,26.8,18.5,13.3,16.1,9.3,4.8,76,67,60,29.93,29.87,0,0,0,0.20
2013-1-31,14.0,12.5,9.7,6.5,4.2,-0.1,74,69,63,30.34,29.89,16,2,16,0.00
2013-2-1,26.2,3.9,-3.6,15.4,-11.8,-21.0,65,48,30,30.43,29.38,14,5,14,0.00
2013-2-2,1.0,-0.0,-1.3,-9.8,-13.8,-18.1,59,51,43,29.87,29.85,10,2,10,0.00
2013-2-3,14.4,11.2,-2.6,3.3,0.2,-13.2,70,60,46,30.19,29.92,12,4,12,0.00
2013-2-4,19.8,9.3,2.8,5.1,-3.9,-11.9,66,54,35,30.05,29.86,12,2,12,0.00
2013-2-5,24.6,14.3,3.9,15.5,3.4,-9.3,72,61,47,30.09,29.70,15,3,15,0.00
2013-2-6,27.7,16.2,4.8,14.1,4.5,-5.6,77,61,31,30.20,30.09,9,2,9,0.00
2013-2-7,27.7,21.7,16.7,18.2,12.9,8.1,76,69,63,30.34,30.19,14,3,14,0.00
2013-2-8,30.0,17.0,1.6,11.8,5.1,-7.3,67,59,41,30.46,30.34,11,2,11,0.00
2013-2-9,41.5,22.7,1.2,20.6,10.2,-9.0,70,59,38,30.37,30.10,13,3,13,0.01
2013-2-10,32.7,27.6,22.5,28.5,21.0,14.7,88,76,66,30.11,29.40,17,4,17,0.00
2013-2-11,32.5,28.2,23.9,29.7,23.3,14.7,90,82,65,29.93,29.23,0,0,0,0.00
2013-2-12,34.2,25.0,21.7,18.4,15.3,12.0,75,66,50,30.71,27.69,107,0,107,0.01
2013-2-13,45.9,28.8,12.7,27.6,19.3,6.1,79,68,43,29.75,29.66,8,1,10,0.22
2013-2-14,30.7,25.3,19.9,24.0,15.0,2.6,80,65,46,30.08,29.69,23,5,23,0.00
2013-2-15,19.9,17.9,16.2,10.2,5.1,0.6,72,57,46,30.19,30.08,14,5,14,0.00
2013-2-16,21.7,13.3,7.2,4.0,-1.6,-5.1,69,51,35,29.98,29.92,12,4,12,0.00
2013-2-17,29.8,16.7,1.0,7.9,-2.5,-12.3,63,44,24,29.96,29.61,23,5,23,0.00
2013-2-18,39.7,29.8,23.7,26.4,17.5,7.0,87,61,46,29.62,29.30,18,4,18,0.00
2013-2-19,29.1,15.4,11.7,25.0,7.6,2.9,85,71,63,29.96,29.31,27,10,27,0.01
2013-2-20,19.4,14.0,10.6,5.5,1.8,-5.2,72,59,38,30.26,29.96,24,7,24,0.00
2013-2-21,31.6,18.5,8.2,15.9,7.4,-3.1,77,62,43,30.32,30.05,13,3,13,0.00
2013-2-22,31.3,25.7,21.7,22.7,18.4,12.9,82,74,65,30.06,29.62,17,5,17,0.00
2013-2-23,33.3,26.3,17.6,26.1,19.8,11.1,86,76,67,29.69,29.55,14,2,14,0.04
2013-2-24,37.9,27.6,18.0,26.2,17.5,11.6,83,67,45,29.89,29.69,5,1,5,0.04
2013-2-25,47.1,30.6,19.9,25.3,20.1,13.6,76,65,40,29.92,29.87,8,1,8,0.00
2013-2-26,46.9,30.6,12.4,34.1,19.3,5.7,80,64,41,29.91,29.76,14,3,14,0.01
2013-2-27,34.9,32.9,30.9,25.8,23.6,21.6,73,68,64,29.80,29.67,24,9,24,0.00
2013-2-28,31.6,26.3,23.7,23.7,17.3,9.3,78,68,53,30.08,29.79,29,12,29,0.00
2013-3-1,29.7,22.0,15.8,12.8,7.6,2.7,62,53,35,30.19,30.07,24,6,24,0.00
2013-3-2,28.6,18.3,2.3,12.8,4.5,-6.6,66,54,42,30.15,30.00,13,3,13,0.00
2013-3-3,2.7,2.2,1.8,-6.0,-6.7,-7.2,66,65,65,30.00,29.99,2,0,2,0.00
2013-3-5,29.8,26.4,12.0,19.6,16.1,2.6,71,65,56,30.01,29.91,18,6,18,0.00
2013-3-6,27.3,26.0,25.5,18.7,18.1,17.0,73,71,65,30.04,30.01,16,9,16,0.00
2013-3-8,49.1,31.4,17.8,26.9,16.8,6.7,79,57,26,29.94,29.67,11,3,11,0.00
2013-3-9,37.0,32.9,24.6,31.4,25.5,17.3,87,74,54,29.75,29.30,14,3,14,0.20
2013-3-10,38.1,34.3,31.8,31.5,27.6,21.4,89,77,62,29.53,29.29,21,5,21,0.04
2013-3-11,31.8,26.9,23.0,27.5,22.3,17.5,89,82,76,29.49,29.22,23,10,26,0.00
2013-3-12,23.0,21.3,19.2,18.5,13.9,8.7,83,73,57,29.93,29.24,22,7,22,0.00
2013-3-13,34.3,25.6,17.1,13.1,5.9,0.8,69,43,27,30.15,29.92,17,6,17,0.01
2013-3-14,45.9,26.3,5.9,27.4,9.5,-4.0,66,51,21,30.13,29.82,10,2,10,0.00
2013-3-15,38.5,25.5,14.9,27.8,10.6,-4.0,72,53,39,29.95,29.82,18,8,18,0.00
2013-3-16,30.0,19.0,13.6,13.7,6.5,-5.4,71,58,37,30.06,29.89,24,5,24,0.00
2013-3-17,33.6,21.2,11.1,18.3,-4.3,-8.9,78,33,21,30.18,29.93,21,4,21,0.00
2013-3-18,34.0,26.9,20.8,26.1,15.3,-3.9,85,62,30,29.93,29.38,17,5,17,0.00
2013-3-19,28.0,23.2,20.3,23.6,16.9,12.3,83,77,63,29.80,29.34,25,11,25,0.01
2013-3-20,25.5,20.4,16.3,14.0,8.4,4.8,76,60,43,29.93,29.78,21,7,21,0.00
2013-3-21,30.4,21.9,8.8,14.4,9.0,-0.7,69,57,44,29.93,29.90,11,4,11,0.00
2013-3-22,36.9,23.2,6.6,23.5,13.2,-2.0,81,65,51,30.01,29.91,11,3,11,0.00
2013-3-23,42.8,29.2,19.6,24.7,18.2,12.2,73,63,45,30.08,30.00,9,2,9,0.00
2013-3-24,34.3,26.5,16.9,25.6,17.8,9.3,80,69,57,30.06,29.91,20,3,20,0.02
2013-3-25,36.5,31.4,21.0,28.4,22.1,14.3,84,68,51,30.07,29.88,16,6,16,0.05
2013-3-26,41.5,35.0,30.4,29.6,26.6,22.5,81,72,58,30.14,30.06,9,2,9,0.00
2013-3-27,46.8,36.1,24.1,29.7,24.6,15.1,77,64,42,30.20,30.13,9,2,9,0.00
2013-3-28,47.8,32.8,17.1,29.4,19.3,8.6,75,58,31,30.22,30.17,9,2,9,0.00
2013-3-29,54.9,36.5,17.2,23.0,15.7,9.4,76,48,21,30.18,30.00,6,1,6,0.00
2013-3-30,48.4,39.2,30.9,38.7,31.5,19.2,92,75,52,30.00,29.61,9,2,9,0.24
2013-3-31,37.9,36.4,35.6,33.8,32.4,31.5,86,85,84,29.61,29.58,7,0,7,0.00
2013-4-1,33.6,30.2,21.0,12.6,8.9,2.5,69,40,33,29.93,29.85,14,8,14,0.33
2013-4-2,37.2,31.4,26.2,13.0,6.9,-10.1,49,36,23,30.12,29.91,15,5,15,0.00
2013-4-3,47.1,34.8,13.6,24.0,8.3,-1.4,60,34,20,30.22,29.83,16,4,16,0.00
2013-4-4,48.0,40.0,32.9,33.2,27.7,13.6,74,61,36,29.93,29.72,14,4,14,0.00
2013-4-5,39.0,32.8,27.3,22.6,13.9,9.3,64,46,33,30.10,29.92,14,5,15,0.00
2013-4-6,38.3,33.4,30.9,30.8,26.3,12.1,89,76,44,29.92,29.40,19,4,19,0.09
2013-4-7,46.2,37.2,32.5,31.0,28.1,23.3,90,71,46,29.77,29.41,8,2,8,0.30
2013-4-9,38.1,34.9,25.3,32.7,20.7,5.5,83,57,42,30.00,29.88,17,6,17,0.31
2013-4-10,41.9,34.0,24.4,29.7,21.5,13.9,80,60,43,30.02,29.90,20,4,20,0.00
2013-4-11,34.9,32.5,30.6,22.4,18.4,13.4,64,56,43,29.96,29.54,27,11,27,0.05
2013-4-12,36.9,30.3,27.9,28.0,25.7,22.2,88,83,63,30.23,29.42,17,6,22,0.11
2013-4-13,39.0,31.6,25.5,28.1,23.5,19.8,87,72,51,29.65,29.43,17,4,17,0.06
2013-4-14,50.4,35.1,19.0,30.6,24.4,12.2,88,66,36,29.74,29.46,20,3,20,0.01
2013-4-15,57.4,41.1,32.9,39.2,29.2,23.8,91,64,37,30.50,29.31,16,4,16,0.29
2013-4-16,45.5,39.6,35.4,33.1,29.0,26.2,75,66,51,30.68,30.11,17,5,17,0.00
2013-4-17,42.3,36.2,32.4,32.0,27.3,24.0,79,70,56,30.74,30.39,14,4,14,0.00
2013-4-18,35.1,33.6,32.5,32.0,30.1,27.4,89,87,75,30.40,29.75,24,7,24,0.38
2013-4-19,32.5,26.9,23.7,29.7,22.6,17.3,90,84,75,30.50,29.74,30,15,30,0.04
2013-4-20,37.4,27.9,18.3,17.5,8.9,2.2,76,46,24,31.01,30.49,18,5,18,0.11
2013-4-21,50.9,35.2,18.3,30.1,20.7,7.9,73,56,40,31.04,30.72,27,7,27,0.08
2013-4-22,48.6,39.4,36.3,35.5,32.2,25.6,92,76,45,30.88,30.70,21,5,21,0.01
2013-4-26,42.3,40.5,39.2,34.5,33.5,32.9,79,76,71,29.93,29.92,2,1,2,0.23
2013-4-27,67.6,42.4,34.2,41.2,33.4,28.8,82,72,35,29.93,29.91,5,1,5,0.00
2013-4-28,76.1,68.0,51.4,51.9,44.5,40.5,92,45,32,29.72,29.50,15,4,15,0.09
2013-4-29,62.1,52.1,44.1,53.7,45.8,40.3,100,81,56,29.62,29.49,7,2,7,0.04
2013-4-30,87.3,61.0,52.3,61.3,51.5,40.8,96,73,35,30.25,29.25,24,6,24,0.00
2013-5-1,59.0,42.8,33.3,42.1,35.7,32.1,100,79,36,30.28,29.64,13,4,13,0.22
2013-5-2,34.5,31.7,30.0,34.5,31.5,29.8,100,99,96,30.34,30.25,21,8,21,0.09
2013-5-3,32.9,31.4,30.2,32.7,31.0,30.0,100,98,93,30.26,30.06,21,7,21,0.04
2013-5-4,40.8,36.3,32.7,37.5,35.0,32.5,100,95,87,29.91,29.86,13,4,13,0.25
2013-5-5,44.8,39.0,35.6,38.8,36.5,34.8,99,91,77,29.91,29.81,8,4,8,0.00
2013-5-6,54.9,43.8,31.6,41.7,37.8,31.4,100,81,61,29.82,29.72,7,2,7,0.00
2013-5-7,63.7,55.5,36.5,47.8,43.7,35.5,100,66,51,29.76,29.65,12,3,12,0.26
2013-5-8,70.7,54.8,43.7,48.5,43.3,40.2,93,68,39,30.39,29.63,11,2,11,0.00
2013-5-9,47.1,40.9,36.3,44.0,38.5,33.6,100,91,71,29.87,29.69,21,5,21,0.52
2013-5-10,45.7,36.9,30.2,35.4,30.3,26.4,96,78,55,29.87,29.77,17,3,17,0.00
2013-5-11,41.5,39.9,38.3,34.2,30.8,28.3,85,70,60,29.69,29.63,6,3,6,0.00
2013-5-12,47.1,42.0,30.4,33.3,25.1,22.7,79,52,41,29.92,29.90,13,5,13,0.01
2013-5-13,58.5,44.8,26.1,34.1,25.5,17.7,82,50,24,29.93,29.56,11,3,11,0.00
2013-5-14,81.5,61.5,44.8,48.2,40.5,21.7,72,48,24,30.28,29.31,19,5,19,0.00
2013-5-15,75.9,60.6,46.2,46.3,42.4,39.0,85,54,27,30.20,29.87,19,8,19,0.00
2013-5-16,61.0,51.2,37.6,44.8,39.5,35.8,100,66,42,30.50,30.19,16,4,16,0.00
2013-5-17,63.7,52.9,42.6,46.6,41.2,38.3,85,66,42,30.58,30.45,17,4,17,0.00
2013-5-18,60.3,56.6,53.6,59.4,52.9,41.6,100,88,62,30.50,30.29,11,3,11,0.58
2013-5-19,69.3,57.8,45.9,60.7,53.3,45.1,100,86,65,30.30,30.16,17,4,17,0.00
2013-5-20,70.9,56.3,45.9,58.6,52.3,45.1,100,87,63,30.25,30.00,21,5,21,0.53
2013-5-21,63.3,47.7,42.3,58.0,46.4,42.0,100,95,76,30.13,29.91,17,4,17,0.52
2013-5-22,45.1,42.8,41.2,43.9,42.0,39.3,100,97,89,30.09,29.78,20,5,20,0.02
2013-5-23,50.0,41.0,32.2,43.9,33.7,29.4,100,76,52,30.82,29.93,21,6,21,0.00
2013-5-24,59.2,35.6,28.6,40.1,31.4,28.3,100,88,38,30.42,30.34,6,1,6,0.00
2013-5-25,73.6,63.0,43.2,45.6,37.3,27.6,77,39,24,29.87,29.79,16,6,16,0.00
2013-5-26,72.0,58.0,43.5,42.8,35.2,27.3,72,44,21,30.15,29.66,17,5,17,0.00
2013-5-27,77.9,61.9,43.7,46.4,37.0,32.6,73,43,24,29.92,29.65,18,4,18,0.00
2013-5-28,69.3,57.5,49.8,51.4,45.2,39.5,85,64,45,29.69,29.46,13,2,13,0.00
2013-5-29,74.7,59.4,43.2,64.8,51.5,40.8,95,76,56,29.57,29.47,10,2,11,0.01
2013-5-30,94.3,73.5,62.8,69.9,65.8,61.8,100,80,40,29.95,29.36,17,4,17,0.24
2013-5-31,90.3,72.4,52.2,67.1,60.3,47.1,99,71,31,29.97,29.83,15,4,15,0.05
2013-6-1,78.3,53.5,41.2,62.5,50.6,40.9,100,91,50,30.14,29.84,17,4,17,0.06
2013-6-2,62.8,48.5,40.1,42.2,39.5,33.4,100,75,34,30.30,30.14,17,4,17,0.01
2013-6-3,68.5,50.9,32.0,45.8,35.7,24.1,100,63,21,30.37,29.86,9,2,9,0.14
2013-6-4,69.6,52.2,35.6,47.1,39.4,30.0,100,66,25,29.99,29.90,11,2,11,0.00
2013-6-5,58.5,52.6,46.9,52.4,47.7,37.1,100,84,53,29.96,29.85,11,3,11,0.43
2013-6-6,57.2,50.7,45.9,52.8,48.4,43.9,100,92,71,29.86,29.82,10,2,10,0.24
2013-6-7,64.8,52.3,39.6,50.4,44.2,39.3,100,76,51,29.92,29.80,11,2,11,0.00
2013-6-8,73.6,60.5,47.7,54.2,44.4,30.4,97,62,21,29.96,29.81,11,2,11,0.01
2013-6-9,75.9,62.6,50.0,58.4,51.8,36.0,95,70,27,30.00,29.85,16,3,16,0.00
2013-6-10,76.1,63.6,56.7,61.3,55.6,48.9,100,76,56,30.01,29.79,14,3,14,0.00
2013-6-11,82.4,64.2,50.4,64.0,55.9,50.1,100,77,39,29.96,29.88,8,2,8,0.00
2013-6-12,83.7,66.7,49.8,59.0,52.0,47.0,100,65,31,29.99,29.89,8,2,8,0.17
2013-6-13,76.3,59.0,47.8,54.0,50.5,46.6,100,75,37,30.17,29.65,14,3,14,0.00
2013-6-14,77.5,52.6,39.7,53.2,45.5,39.5,100,82,38,30.01,29.96,9,1,9,0.00
2013-6-16,81.5,66.0,55.0,56.1,53.4,48.6,100,68,37,30.05,29.91,18,5,18,0.24
2013-6-17,58.3,50.8,42.6,55.5,48.1,41.8,100,91,64,30.06,29.92,11,2,11,0.04
2013-6-18,69.8,54.4,34.3,51.3,42.1,34.3,100,68,32,30.06,29.96,8,2,8,0.00
2013-6-19,85.1,69.9,46.2,57.1,54.1,45.4,97,60,29,30.02,29.90,3,0,3,0.00
2013-6-20,78.3,65.3,57.9,68.7,61.1,52.3,100,87,63,30.05,29.93,11,2,11,0.63
2013-6-21,68.4,59.7,45.5,66.1,58.4,44.7,100,95,80,30.04,29.83,18,3,18,0.41
2013-6-22,72.1,58.6,46.2,64.9,56.4,45.4,100,93,72,30.06,29.85,10,2,10,0.00
2013-6-23,93.4,76.2,58.8,75.9,67.5,58.6,100,77,46,29.92,29.77,17,2,17,0.18
2013-6-24,86.4,75.7,61.9,71.1,62.1,53.4,100,68,35,29.97,29.87,7,2,7,0.01
2013-6-25,87.6,79.4,67.1,72.6,68.5,64.5,95,70,54,29.95,29.85,8,2,8,0.00
2013-6-26,68.7,64.9,64.2,64.7,64.2,63.4,99,98,85,29.94,29.85,4,1,4,0.32
2013-6-27,87.1,71.1,55.6,72.0,61.2,55.3,100,75,37,29.95,29.86,16,2,16,0.00
2013-6-28,65.7,58.5,51.1,62.4,56.9,50.8,100,95,76,29.98,29.83,14,2,14,0.26
2013-6-29,69.6,57.7,50.4,57.5,52.8,49.3,100,85,57,30.15,29.95,13,2,13,0.01
2013-6-30,80.1,61.9,41.9,58.9,50.4,41.6,100,71,32,30.30,30.14,8,1,8,0.00
2013-7-1,73.8,61.0,48.0,59.3,52.3,45.7,100,76,48,30.41,30.29,17,3,17,0.15
2013-7-2,71.8,56.8,38.8,53.7,45.9,38.6,100,72,35,30.39,30.28,14,2,14,0.00
2013-7-3,81.0,60.5,42.3,58.5,51.8,42.0,100,76,40,30.28,30.14,8,2,8,0.00
2013-7-4,90.5,73.2,53.1,65.1,59.8,52.8,100,67,34,30.16,30.06,8,2,8,0.00
2013-7-5,95.0,81.5,68.7,67.5,62.3,60.1,79,55,34,30.11,30.03,18,4,18,0.00
2013-7-8,70.3,61.0,56.1,60.4,56.6,54.8,100,86,68,29.95,29.92,8,2,8,0.89
2013-7-9,80.2,63.0,52.5,69.7,60.1,52.5,100,91,61,29.94,29.67,9,1,9,0.65
2013-7-10,77.4,66.0,53.6,60.0,56.7,52.7,99,74,46,29.90,29.70,17,5,17,0.05
2013-7-11,81.5,67.3,-20.7,62.8,56.0,-91.7,100,70,1,30.05,29.90,103,2,103,0.00
2013-7-12,91.6,76.1,59.2,82.9,61.5,57.7,99,64,37,29.99,29.88,64,3,64,0.00
2013-7-13,94.3,77.4,66.0,72.3,64.9,58.4,96,67,46,30.06,29.92,24,2,24,0.05
2013-7-14,91.2,75.3,64.2,70.8,66.1,62.8,97,75,43,30.19,30.04,8,1,8,0.01
2013-7-15,88.5,73.2,62.2,70.4,65.5,61.8,100,79,48,30.23,29.90,7,1,8,0.00
2013-7-16,96.1,81.4,69.6,78.0,72.0,66.5,100,75,48,29.91,29.81,12,2,12,0.00
2013-7-17,92.7,81.0,71.4,74.6,70.5,68.0,94,72,51,29.90,29.78,11,2,11,0.00
2013-7-18,98.4,75.5,63.7,79.1,70.3,62.8,100,87,45,29.92,29.66,11,2,11,0.74
2013-7-19,82.4,76.4,67.6,65.5,61.9,57.1,76,61,51,29.94,29.91,13,4,13,0.70
2013-7-20,71.4,63.4,50.2,61.3,52.3,46.2,96,69,42,30.20,29.93,14,4,14,0.02
2013-7-21,74.5,58.0,44.8,58.5,50.1,44.0,100,78,42,30.21,30.11,15,3,15,0.00
2013-7-22,88.7,73.0,59.9,76.4,63.7,54.6,96,74,52,29.92,29.76,14,4,14,0.13
2013-7-23,62.1,58.0,57.0,56.1,52.2,50.6,88,81,78,29.96,29.90,12,5,14,0.00
2013-7-24,80.4,73.1,46.2,60.6,55.8,45.4,100,56,38,30.22,30.12,8,2,8,0.00
2013-7-25,82.4,67.8,59.4,64.5,59.9,55.2,97,77,53,30.13,30.02,11,2,11,0.08
2013-7-26,62.8,58.6,55.0,62.3,58.4,54.2,100,99,97,30.04,30.02,6,1,6,0.00
2013-7-27,61.7,54.9,48.7,50.9,48.6,47.1,100,80,65,30.15,30.01,8,3,8,0.02
2013-7-28,54.9,53.2,50.4,53.4,51.6,47.2,100,95,84,30.18,30.00,17,4,17,0.46
2013-7-29,80.1,58.8,44.6,59.5,52.0,43.8,99,82,39,30.20,29.91,4,0,4,0.01
2013-7-30,80.2,65.3,55.6,63.9,59.0,54.2,100,81,53,29.94,29.85,9,1,9,0.00
2013-7-31,81.7,68.2,58.1,67.0,60.8,54.6,100,80,48,29.85,29.69,13,3,13,0.01
2013-8-1,79.2,67.7,58.6,59.9,56.7,54.3,87,69,44,29.73,29.65,13,3,13,0.00
2013-8-2,75.9,61.8,52.9,62.0,57.2,52.8,100,86,50,29.78,29.60,14,2,14,0.09
2013-8-3,73.8,66.6,53.4,59.6,56.8,52.6,100,72,57,29.98,29.79,12,3,14,0.00
2013-8-4,66.2,52.1,46.0,58.5,51.4,45.2,100,98,76,30.03,29.98,3,0,3,0.00
2013-8-5,74.3,64.3,55.4,64.3,60.4,52.2,97,87,68,29.92,29.74,8,1,8,0.01
2013-8-6,73.6,65.3,61.7,66.2,62.6,60.3,100,91,73,29.75,29.66,9,1,9,0.01
2013-8-7,78.4,64.1,54.7,61.2,56.2,44.9,100,80,32,29.92,29.65,10,2,10,0.33
2013-8-8,56.5,51.9,47.8,56.1,50.9,47.6,100,96,92,29.96,29.92,3,0,3,0.00
2013-8-9,76.8,66.7,53.8,60.1,56.1,52.4,100,70,51,30.00,29.86,17,4,17,0.00
2013-8-10,75.6,59.2,48.2,61.2,54.5,47.9,100,87,49,30.09,30.00,7,1,7,0.00
2013-8-11,81.7,64.4,51.1,61.4,55.7,50.8,100,77,45,30.02,29.93,8,1,8,0.00
2013-8-12,77.4,61.2,47.5,63.0,55.0,47.2,100,81,57,30.01,29.88,17,3,17,0.00
2013-8-13,70.0,55.8,45.1,55.4,50.1,44.3,100,83,52,30.13,30.01,11,2,11,0.00
2013-8-14,74.5,59.7,44.2,57.7,50.8,43.8,100,76,41,30.14,30.02,10,2,12,0.00
2013-8-15,79.3,63.8,47.5,60.3,52.9,46.9,100,71,42,30.03,29.99,10,1,10,0.00
2013-8-16,86.2,68.5,49.3,61.3,56.2,49.0,100,69,35,30.10,30.03,5,1,5,0.00
2013-8-17,78.3,62.0,57.6,62.3,57.9,55.9,95,88,54,30.13,30.07,4,0,4,0.00
2013-8-22,79.3,66.6,54.3,65.5,57.7,53.5,99,76,53,30.19,30.10,4,1,4,0.00
2013-8-23,85.1,70.1,53.2,64.2,61.1,53.0,99,75,46,30.22,30.14,4,1,4,0.00
2013-8-24,84.2,68.3,60.1,66.4,61.5,58.8,97,81,50,30.23,30.16,9,2,9,0.00
2013-8-25,94.1,82.2,75.0,75.0,72.1,65.5,87,73,54,30.03,29.98,14,4,14,0.01
2013-8-26,87.3,81.0,66.4,75.7,72.2,66.1,100,76,64,30.06,29.95,9,3,9,0.50
2013-9-4,70.9,61.2,46.2,62.3,51.6,45.1,100,73,43,30.23,29.95,14,3,14,0.00
2013-9-5,77.5,59.0,42.8,54.6,50.0,42.3,100,77,42,30.34,30.19,5,1,5,0.00
2013-9-6,86.0,70.7,53.6,73.5,65.0,52.8,99,83,60,30.19,29.91,4,2,4,0.01
2013-9-7,79.0,66.8,50.0,70.4,62.8,49.7,100,88,70,30.18,29.90,11,3,11,0.00
2013-9-8,77.2,60.0,43.3,61.2,54.1,42.8,100,83,48,30.21,30.00,11,2,11,0.00
2013-9-9,75.6,66.5,59.9,70.2,63.2,55.9,100,89,77,30.00,29.71,7,2,7,0.02
2013-9-10,78.3,68.5,65.7,69.9,66.2,65.1,100,92,70,29.95,29.74,10,1,10,0.08
2013-9-11,84.4,68.8,57.7,67.3,62.6,55.7,100,83,53,30.05,29.96,12,2,12,0.01
2013-9-12,64.0,59.9,55.2,58.8,51.3,43.2,86,74,62,30.27,30.04,14,4,14,0.00
2013-9-13,70.2,54.0,38.3,51.4,45.1,38.0,100,75,43,30.34,30.16,7,1,7,0.00
2013-9-14,79.9,60.4,44.8,56.7,50.7,44.0,100,74,39,30.16,29.97,10,2,10,0.00
2013-9-15,63.3,56.7,37.8,57.6,54.2,37.5,100,91,68,30.38,30.00,19,4,19,0.05
2013-9-16,66.9,53.8,35.4,50.3,45.0,34.8,100,75,45,30.50,30.36,7,2,7,0.01
2013-9-17,77.0,55.7,42.1,51.7,45.9,41.3,100,76,29,30.37,30.10,11,2,11,0.00
2013-9-18,64.0,57.4,50.2,60.6,55.4,48.8,100,93,87,30.10,29.98,8,2,8,0.02
2013-9-19,91.2,66.7,64.0,73.7,65.1,63.2,100,95,53,29.90,29.73,7,1,7,0.01
2013-9-20,65.7,65.5,64.9,65.4,65.2,64.7,99,99,99,29.74,29.73,6,2,6,0.00
2013-9-21,60.6,50.6,46.6,50.1,41.6,39.3,88,72,49,30.05,29.85,9,2,9,0.00
2013-9-22,63.9,46.5,43.7,47.4,42.0,40.0,92,85,44,30.17,30.04,10,1,10,0.00
2013-9-23,46.2,44.5,43.9,43.4,42.4,42.0,94,92,87,30.13,30.08,9,4,9,0.00
2013-9-28,79.2,67.1,52.7,61.4,55.3,49.0,97,68,51,30.01,29.68,14,6,14,0.30
2013-9-29,80.4,60.3,43.9,52.9,47.8,43.4,100,68,32,30.01,29.90,8,2,8,0.01
2013-9-30,80.1,65.7,54.5,51.4,49.0,47.1,77,57,33,29.94,29.71,11,4,11,0.00
2013-10-1,77.7,68.0,62.6,57.6,48.7,37.9,71,52,31,29.92,29.66,15,5,15,0.00
2013-10-2,79.5,62.6,46.9,49.7,43.3,39.6,79,53,24,30.10,29.92,12,2,12,0.00
2013-10-3,62.2,55.5,50.9,54.7,51.8,49.9,100,89,71,30.10,30.02,9,3,9,0.22
2013-10-4,62.4,55.5,52.5,53.9,51.1,46.7,100,86,65,30.21,30.06,12,4,12,0.04
2013-10-5,54.7,52.5,50.7,52.7,51.3,48.9,100,96,81,30.19,29.85,12,4,12,0.43
2013-10-6,59.5,51.9,50.0,54.2,51.2,49.4,100,98,79,29.86,29.70,11,2,11,0.32
2013-10-7,60.6,49.0,41.5,48.0,44.3,41.3,100,86,54,30.05,29.78,9,2,9,0.00
2013-10-8,79.7,64.9,42.4,50.9,45.8,40.9,100,54,29,30.09,29.93,17,5,17,0.00
2013-10-9,67.5,67.1,66.7,46.5,46.3,45.9,48,47,47,30.00,29.96,9,5,11,0.00
2013-10-10,79.7,68.3,46.6,53.3,47.8,39.1,100,53,24,30.17,30.06,13,3,13,0.00
2013-10-11,79.0,63.3,52.7,55.9,51.9,46.7,86,68,44,30.10,29.88,20,6,20,0.00
2013-10-12,64.9,62.5,61.9,52.9,50.0,49.4,65,64,62,29.87,29.83,17,9,17,0.00
2013-10-16,51.1,44.8,34.2,46.9,41.1,33.4,99,87,63,29.93,29.82,11,4,11,0.04
2013-10-17,55.0,43.4,31.5,46.9,39.8,31.2,100,89,63,29.92,29.81,9,2,9,0.01
2013-10-18,51.1,43.2,31.6,45.4,39.8,30.4,100,89,63,29.93,29.83,10,3,10,0.26
2013-10-19,53.4,40.8,33.4,41.7,37.1,31.1,99,87,62,29.89,29.72,8,2,8,0.13
2013-10-20,51.8,40.7,36.0,41.2,37.3,32.8,100,89,58,29.84,29.76,6,1,6,0.25
2013-10-21,40.6,36.6,31.8,39.7,33.1,27.6,100,87,64,29.82,29.72,17,4,17,0.22
2013-10-22,42.3,38.7,37.4,37.1,26.9,23.3,100,63,54,30.02,29.76,23,4,23,0.34
2013-10-23,48.6,38.8,33.4,33.7,28.6,21.5,85,67,46,30.00,29.93,17,4,17,0.00
2013-10-24,46.0,39.6,34.9,34.5,30.8,26.8,88,71,56,30.23,30.02,14,4,14,0.05
2013-10-25,48.7,41.5,34.0,39.7,31.7,28.5,86,68,54,30.27,29.64,6,3,6,0.00
2013-10-26,46.0,42.4,40.1,42.1,32.3,25.6,92,68,54,30.06,29.67,14,6,14,0.11
2013-10-27,52.7,40.7,35.6,35.8,31.1,26.7,86,69,44,30.26,29.84,17,4,17,0.02
2013-10-28,40.8,32.4,21.9,26.3,21.6,17.8,84,65,55,30.58,30.28,17,4,17,0.00
2013-10-29,41.5,33.6,19.8,31.8,24.3,16.3,86,69,55,30.55,30.36,11,2,11,0.00
2013-10-30,47.3,40.5,33.8,46.8,38.4,31.5,100,92,84,30.25,29.80,5,2,5,0.05
2013-10-31,50.9,47.6,44.6,50.6,47.2,43.8,100,99,97,29.79,29.33,10,2,10,0.26
2013-11-1,44.8,43.0,39.9,44.0,39.1,35.7,100,86,75,29.82,29.32,11,3,11,0.08
2013-11-2,46.2,39.6,35.2,38.4,34.3,31.8,96,82,62,30.19,29.82,5,2,5,0.04
2013-11-3,38.1,37.0,36.5,33.8,32.1,31.2,85,82,81,30.23,30.19,4,2,4,0.00
2013-11-4,49.8,46.9,44.4,43.0,38.3,33.7,86,72,64,30.16,29.95,17,6,17,0.07
2013-11-5,54.9,41.7,33.3,36.5,31.2,23.6,90,68,31,30.26,30.11,14,2,14,0.40
2013-11-6,38.7,36.4,34.2,36.4,26.9,21.9,96,68,59,30.11,29.97,27,6,27,0.14
2013-11-7,39.2,36.7,34.3,28.6,25.0,20.7,78,62,52,30.19,30.10,14,5,14,0.00
2013-11-8,47.8,37.6,29.8,30.4,24.4,18.2,83,60,33,30.23,29.81,17,4,17,0.04
2013-11-9,40.8,38.1,34.2,38.5,34.8,30.3,96,88,79,29.97,29.64,23,8,23,0.46
2013-11-10,43.9,38.9,36.9,35.4,30.9,20.2,89,74,48,30.27,29.96,17,6,17,0.04
2013-11-11,33.8,27.0,25.0,30.6,14.8,10.0,90,60,51,30.61,30.08,15,7,15,0.02
2013-11-12,32.4,25.9,23.2,16.7,9.8,3.8,63,51,36,30.67,30.44,12,5,12,0.00
2013-11-13,54.7,37.6,21.4,31.5,19.8,4.8,65,49,33,30.43,29.78,8,3,8,0.05
2013-11-14,47.5,40.2,30.9,36.5,32.1,27.5,87,73,57,29.84,29.80,6,1,6,0.00
2013-11-15,49.3,39.2,31.1,38.2,33.6,-58.1,90,80,65,29.88,29.81,8,2,8,0.00
2013-11-16,55.4,45.4,41.5,43.4,38.0,33.8,97,76,54,29.82,29.35,21,5,21,0.43
2013-11-17,51.6,44.2,36.3,48.0,41.1,26.4,100,89,67,29.51,29.27,27,5,27,0.09
2013-11-18,36.3,35.8,35.4,27.0,25.3,23.5,69,66,61,29.55,29.51,25,15,25,0.00
2013-11-19,39.0,36.0,25.5,20.4,17.0,13.6,65,46,42,30.38,30.06,23,10,23,0.00
2013-11-20,43.9,39.9,34.0,30.9,24.4,19.2,87,56,40,30.15,30.04,24,8,24,0.02
2013-11-21,42.1,34.4,28.2,36.0,30.1,18.4,90,84,65,30.25,29.59,14,2,14,0.01
2013-11-22,41.7,28.4,19.9,21.9,13.9,1.5,71,56,23,30.31,30.14,21,4,26,0.00
2013-11-23,19.9,15.2,12.6,10.1,1.2,-3.0,72,53,43,30.50,30.26,22,9,22,0.00
2013-11-24,27.1,18.7,13.6,9.2,0.7,-11.9,64,46,24,30.45,29.70,17,5,17,0.00
2013-11-25,38.5,33.4,27.1,30.4,22.9,9.2,88,65,46,29.73,29.55,19,7,19,0.01
2013-11-26,32.2,21.2,16.3,20.9,9.8,0.9,82,61,46,30.06,29.73,21,8,21,0.00
2013-11-27,31.1,23.5,19.9,14.6,10.0,6.0,76,56,39,30.10,30.00,24,6,24,0.00
2013-11-28,41.4,23.7,18.9,31.9,13.0,8.6,77,65,33,30.26,29.25,7,2,7,0.01
2013-11-29,29.8,20.8,9.0,19.5,11.4,1.3,77,67,59,30.03,29.74,13,3,13,0.00
2013-11-30,36.7,31.0,26.1,29.0,21.4,14.9,86,67,54,29.74,29.51,8,2,8,0.00
2013-12-1,33.3,31.9,29.8,29.0,27.6,25.0,87,84,80,29.66,29.48,8,2,10,0.00
2013-12-2,34.5,31.2,27.5,25.7,24.3,22.5,86,76,66,29.48,29.31,12,3,12,0.00
2013-12-3,32.4,29.1,27.1,25.8,22.2,17.6,87,75,64,29.46,29.33,21,7,22,0.01
2013-12-4,32.2,30.2,26.8,29.4,26.4,19.0,90,85,71,29.47,28.82,17,4,17,0.00
2013-12-5,32.7,18.3,9.1,30.1,11.4,1.4,90,74,63,29.56,28.81,0,0,0,0.01
2013-12-6,47.7,9.5,4.6,31.9,1.5,-3.5,76,69,47,30.05,29.37,6,0,6,0.66
2013-12-7,16.7,6.0,0.0,5.7,-4.5,-12.1,75,61,45,30.14,30.00,0,0,0,0.00
2013-12-8,9.5,3.0,-6.5,-0.1,-8.9,-19.0,65,56,45,30.11,29.65,0,0,0,0.00
2013-12-9,16.9,7.6,-1.3,3.9,-3.1,-12.7,70,61,44,29.64,29.39,0,0,0,0.00
2013-12-10,14.4,4.5,-4.9,4.5,-6.2,-16.8,74,60,44,29.66,29.39,0,0,0,0.00
2013-12-11,9.0,6.8,-3.5,0.6,-2.0,-16.0,69,66,54,29.95,29.67,0,0,0,0.00
2013-12-12,16.3,6.4,-4.9,8.6,-3.6,-17.5,73,63,53,29.88,29.70,0,0,0,0.00
2013-12-13,13.3,7.9,-0.2,4.1,-3.7,-13.6,67,58,44,30.02,29.74,0,0,0,0.00
2013-12-14,18.9,10.5,0.9,7.8,-0.7,-11.8,71,60,52,30.02,29.50,0,0,0,0.00
2013-12-15,17.2,13.2,5.0,10.1,5.4,-4.1,75,71,59,29.71,29.45,0,0,0,0.00
2013-12-16,14.4,7.2,-2.2,4.2,-3.2,-13.5,69,62,50,29.71,29.44,0,0,0,0.00
2013-12-17,28.6,19.5,11.3,21.5,10.0,2.4,78,66,56,29.59,29.36,0,0,0,0.00
2013-12-18,21.6,15.8,12.2,9.4,4.1,-1.4,73,59,48,29.61,29.28,0,0,0,0.00
2013-12-19,27.7,19.6,14.4,19.4,9.9,4.7,76,65,58,29.78,29.33,15,5,15,0.00
2013-12-20,24.1,14.6,0.3,13.2,5.4,-9.5,74,66,54,29.75,29.50,7,1,7,0.00
2013-12-21,34.2,20.8,14.4,19.9,12.6,7.1,79,70,53,29.65,29.48,12,1,12,0.00
2013-12-22,25.7,23.3,18.3,19.7,15.7,10.4,78,72,63,29.78,29.57,16,5,16,0.00
2013-12-23,18.3,15.4,11.7,10.6,7.3,4.2,73,70,65,30.04,29.78,9,2,9,0.00
2013-12-24,28.6,15.5,8.8,10.3,2.5,-0.8,72,57,35,30.03,29.77,14,2,14,0.00
2013-12-25,44.6,17.6,12.7,31.9,9.5,1.9,80,70,52,29.93,29.67,17,2,17,0.66
2013-12-26,18.0,15.0,13.3,10.2,4.0,2.5,71,61,55,30.10,29.91,11,3,11,0.00
2013-12-27,36.0,23.6,7.7,28.9,14.5,-1.0,80,68,62,30.09,29.67,12,3,12,0.02
2013-12-28,36.1,31.3,19.4,29.1,25.5,12.5,87,79,69,29.89,29.69,26,4,26,0.08
2013-12-29,19.4,9.2,5.5,12.5,-1.7,-10.0,74,61,47,30.08,29.88,25,8,25,0.00
2013-12-30,8.6,1.3,-3.3,-4.2,-12.7,-17.2,63,51,33,30.13,29.99,13,3,13,0.00
2013-12-31,5.2,2.0,-2.4,-3.9,-8.4,-13.9,66,60,52,30.28,29.95,17,4,17,0.00
2014-1-1,5.5,-0.1,-6.3,-6.6,-11.5,-17.1,61,57,54,30.39,30.27,4,0,24,0.00
2014-1-2,41.5,1.7,-9.4,31.9,-9.9,-21.7,69,57,10,30.34,29.33,6,1,6,0.77